sensor_id;sensor_type;location;lat;lon;timestamp;P1;durP1;ratioP1;P2;durP2;ratioP2
77400;SDS011;66855;45.414;11.082;2023-04-25T00:01:19;0.60;;;0.30;;
77400;SDS011;66855;45.414;11.082;2023-04-25T00:03:48;0.80;;;0.20;;
77400;SDS011;66855;45.414;11.082;2023-04-25T00:06:16;1.00;;;0.10;;
77400;SDS011;66855;45.414;11.082;2023-04-25T00:08:44;0.50;;;0.10;;
77400;SDS011;66855;45.414;11.082;2023-04-25T00:11:11;0.40;;;0.20;;
77400;SDS011;66855;45.414;11.082;2023-04-25T00:13:37;1.00;;;0.30;;
77400;SDS011;66855;45.414;11.082;2023-04-25T00:16:08;2.20;;;0.20;;
77400;SDS011;66855;45.414;11.082;2023-04-25T00:18:34;0.30;;;0.30;;
77400;SDS011;66855;45.414;11.082;2023-04-25T00:21:02;0.80;;;0.30;;
77400;SDS011;66855;45.414;11.082;2023-04-25T00:23:32;0.50;;;0.20;;
77400;SDS011;66855;45.414;11.082;2023-04-25T00:25:59;0.50;;;0.20;;
77400;SDS011;66855;45.414;11.082;2023-04-25T00:28:26;0.10;;;0.10;;
77400;SDS011;66855;45.414;11.082;2023-04-25T00:30:52;1.20;;;0.30;;
77400;SDS011;66855;45.414;11.082;2023-04-25T00:33:19;0.30;;;0.00;;
77400;SDS011;66855;45.414;11.082;2023-04-25T00:35:46;0.70;;;0.00;;
77400;SDS011;66855;45.414;11.082;2023-04-25T00:38:12;0.80;;;0.10;;
77400;SDS011;66855;45.414;11.082;2023-04-25T00:40:39;0.30;;;0.10;;
77400;SDS011;66855;45.414;11.082;2023-04-25T00:43:06;0.80;;;0.10;;
77400;SDS011;66855;45.414;11.082;2023-04-25T00:45:33;0.30;;;0.10;;
77400;SDS011;66855;45.414;11.082;2023-04-25T00:48:04;0.90;;;0.10;;
77400;SDS011;66855;45.414;11.082;2023-04-25T00:50:33;0.70;;;0.10;;
77400;SDS011;66855;45.414;11.082;2023-04-25T00:53:00;1.20;;;0.10;;
77400;SDS011;66855;45.414;11.082;2023-04-25T00:55:27;0.90;;;0.20;;
77400;SDS011;66855;45.414;11.082;2023-04-25T00:57:53;1.10;;;0.10;;
77400;SDS011;66855;45.414;11.082;2023-04-25T01:00:20;0.70;;;0.10;;
77400;SDS011;66855;45.414;11.082;2023-04-25T01:02:47;0.00;;;0.00;;
77400;SDS011;66855;45.414;11.082;2023-04-25T01:05:15;0.20;;;0.10;;
77400;SDS011;66855;45.414;11.082;2023-04-25T01:07:41;0.10;;;0.10;;
77400;SDS011;66855;45.414;11.082;2023-04-25T01:10:08;0.20;;;0.10;;
77400;SDS011;66855;45.414;11.082;2023-04-25T01:12:36;0.70;;;0.20;;
77400;SDS011;66855;45.414;11.082;2023-04-25T01:15:03;1.30;;;0.20;;
77400;SDS011;66855;45.414;11.082;2023-04-25T01:17:30;0.10;;;0.10;;
77400;SDS011;66855;45.414;11.082;2023-04-25T01:19:57;0.20;;;0.10;;
77400;SDS011;66855;45.414;11.082;2023-04-25T01:22:24;0.10;;;0.10;;
77400;SDS011;66855;45.414;11.082;2023-04-25T01:24:52;0.30;;;0.10;;
77400;SDS011;66855;45.414;11.082;2023-04-25T01:27:19;0.40;;;0.10;;
77400;SDS011;66855;45.414;11.082;2023-04-25T01:29:48;0.40;;;0.10;;
77400;SDS011;66855;45.414;11.082;2023-04-25T01:32:15;0.40;;;0.10;;
77400;SDS011;66855;45.414;11.082;2023-04-25T01:34:42;0.70;;;0.10;;
77400;SDS011;66855;45.414;11.082;2023-04-25T01:37:09;0.10;;;0.00;;
77400;SDS011;66855;45.414;11.082;2023-04-25T01:39:36;0.30;;;0.20;;
77400;SDS011;66855;45.414;11.082;2023-04-25T01:42:02;0.00;;;0.00;;
77400;SDS011;66855;45.414;11.082;2023-04-25T01:44:30;0.00;;;0.00;;
77400;SDS011;66855;45.414;11.082;2023-04-25T01:46:56;0.10;;;0.00;;
77400;SDS011;66855;45.414;11.082;2023-04-25T01:49:25;0.10;;;0.00;;
77400;SDS011;66855;45.414;11.082;2023-04-25T01:51:51;0.70;;;0.10;;
77400;SDS011;66855;45.414;11.082;2023-04-25T01:54:18;0.10;;;0.10;;
77400;SDS011;66855;45.414;11.082;2023-04-25T01:56:49;0.80;;;0.10;;
77400;SDS011;66855;45.414;11.082;2023-04-25T01:59:18;1.40;;;0.10;;
77400;SDS011;66855;45.414;11.082;2023-04-25T02:02:18;0.40;;;0.00;;
77400;SDS011;66855;45.414;11.082;2023-04-25T02:04:46;0.20;;;0.00;;
77400;SDS011;66855;45.414;11.082;2023-04-25T02:07:12;0.60;;;0.10;;
77400;SDS011;66855;45.414;11.082;2023-04-25T02:09:51;0.60;;;0.10;;
77400;SDS011;66855;45.414;11.082;2023-04-25T02:12:19;0.50;;;0.10;;
77400;SDS011;66855;45.414;11.082;2023-04-25T02:15:03;0.20;;;0.00;;
77400;SDS011;66855;45.414;11.082;2023-04-25T02:17:40;0.10;;;0.00;;
77400;SDS011;66855;45.414;11.082;2023-04-25T02:20:07;0.40;;;0.00;;
77400;SDS011;66855;45.414;11.082;2023-04-25T02:22:34;0.20;;;0.00;;
77400;SDS011;66855;45.414;11.082;2023-04-25T02:25:04;0.30;;;0.10;;
77400;SDS011;66855;45.414;11.082;2023-04-25T02:27:35;0.90;;;0.00;;
77400;SDS011;66855;45.414;11.082;2023-04-25T02:30:01;1.00;;;0.10;;
77400;SDS011;66855;45.414;11.082;2023-04-25T02:32:29;0.70;;;0.10;;
77400;SDS011;66855;45.414;11.082;2023-04-25T02:34:56;0.20;;;0.10;;
77400;SDS011;66855;45.414;11.082;2023-04-25T02:37:25;0.40;;;0.00;;
77400;SDS011;66855;45.414;11.082;2023-04-25T02:39:52;0.70;;;0.10;;
77400;SDS011;66855;45.414;11.082;2023-04-25T02:42:19;0.30;;;0.10;;
77400;SDS011;66855;45.414;11.082;2023-04-25T02:44:45;0.00;;;0.00;;
77400;SDS011;66855;45.414;11.082;2023-04-25T02:47:12;0.10;;;0.10;;
77400;SDS011;66855;45.414;11.082;2023-04-25T02:49:39;0.00;;;0.00;;
77400;SDS011;66855;45.414;11.082;2023-04-25T02:52:06;0.20;;;0.00;;
77400;SDS011;66855;45.414;11.082;2023-04-25T02:54:32;2.20;;;0.10;;
77400;SDS011;66855;45.414;11.082;2023-04-25T02:57:00;1.00;;;0.10;;
77400;SDS011;66855;45.414;11.082;2023-04-25T02:59:33;0.30;;;0.00;;
77400;SDS011;66855;45.414;11.082;2023-04-25T03:02:00;0.30;;;0.00;;
77400;SDS011;66855;45.414;11.082;2023-04-25T03:04:27;0.10;;;0.10;;
77400;SDS011;66855;45.414;11.082;2023-04-25T03:06:54;0.10;;;0.10;;
77400;SDS011;66855;45.414;11.082;2023-04-25T03:09:21;0.20;;;0.00;;
77400;SDS011;66855;45.414;11.082;2023-04-25T03:11:48;0.20;;;0.00;;
77400;SDS011;66855;45.414;11.082;2023-04-25T03:14:15;0.60;;;0.10;;
77400;SDS011;66855;45.414;11.082;2023-04-25T03:16:41;0.60;;;0.10;;
77400;SDS011;66855;45.414;11.082;2023-04-25T03:19:08;0.30;;;0.10;;
77400;SDS011;66855;45.414;11.082;2023-04-25T03:21:36;0.70;;;0.10;;
77400;SDS011;66855;45.414;11.082;2023-04-25T03:24:03;0.80;;;0.10;;
77400;SDS011;66855;45.414;11.082;2023-04-25T03:26:32;0.10;;;0.10;;
77400;SDS011;66855;45.414;11.082;2023-04-25T03:28:58;0.40;;;0.10;;
77400;SDS011;66855;45.414;11.082;2023-04-25T03:31:25;0.00;;;0.00;;
77400;SDS011;66855;45.414;11.082;2023-04-25T03:33:52;0.10;;;0.10;;
77400;SDS011;66855;45.414;11.082;2023-04-25T03:36:21;0.10;;;0.10;;
77400;SDS011;66855;45.414;11.082;2023-04-25T03:38:48;0.10;;;0.00;;
77400;SDS011;66855;45.414;11.082;2023-04-25T03:41:15;0.50;;;0.10;;
77400;SDS011;66855;45.414;11.082;2023-04-25T03:43:45;0.50;;;0.00;;
77400;SDS011;66855;45.414;11.082;2023-04-25T03:46:12;0.20;;;0.10;;
77400;SDS011;66855;45.414;11.082;2023-04-25T03:48:41;0.30;;;0.10;;
77400;SDS011;66855;45.414;11.082;2023-04-25T03:51:10;0.10;;;0.00;;
77400;SDS011;66855;45.414;11.082;2023-04-25T03:53:38;0.20;;;0.00;;
77400;SDS011;66855;45.414;11.082;2023-04-25T03:56:14;0.20;;;0.10;;
77400;SDS011;66855;45.414;11.082;2023-04-25T03:58:42;0.10;;;0.10;;
77400;SDS011;66855;45.414;11.082;2023-04-25T04:01:09;0.30;;;0.10;;
77400;SDS011;66855;45.414;11.082;2023-04-25T04:03:37;0.30;;;0.10;;
77400;SDS011;66855;45.414;11.082;2023-04-25T04:06:05;0.10;;;0.00;;
77400;SDS011;66855;45.414;11.082;2023-04-25T04:08:36;0.20;;;0.20;;
77400;SDS011;66855;45.414;11.082;2023-04-25T04:11:03;1.90;;;0.20;;
77400;SDS011;66855;45.414;11.082;2023-04-25T04:13:31;0.30;;;0.20;;
77400;SDS011;66855;45.414;11.082;2023-04-25T04:15:59;0.20;;;0.10;;
77400;SDS011;66855;45.414;11.082;2023-04-25T04:18:26;0.80;;;0.20;;
77400;SDS011;66855;45.414;11.082;2023-04-25T04:23:21;0.90;;;0.10;;
77400;SDS011;66855;45.414;11.082;2023-04-25T04:25:50;0.00;;;0.00;;
77400;SDS011;66855;45.414;11.082;2023-04-25T04:28:26;0.10;;;0.00;;
77400;SDS011;66855;45.414;11.082;2023-04-25T04:31:01;0.20;;;0.10;;
77400;SDS011;66855;45.414;11.082;2023-04-25T04:33:29;0.10;;;0.00;;
77400;SDS011;66855;45.414;11.082;2023-04-25T04:36:00;0.40;;;0.10;;
77400;SDS011;66855;45.414;11.082;2023-04-25T04:40:59;0.20;;;0.10;;
77400;SDS011;66855;45.414;11.082;2023-04-25T04:43:59;0.10;;;0.00;;
77400;SDS011;66855;45.414;11.082;2023-04-25T04:46:41;0.10;;;0.10;;
77400;SDS011;66855;45.414;11.082;2023-04-25T04:49:31;1.00;;;0.10;;
77400;SDS011;66855;45.414;11.082;2023-04-25T04:57:50;0.10;;;0.00;;
77400;SDS011;66855;45.414;11.082;2023-04-25T05:00:52;0.10;;;0.10;;
77400;SDS011;66855;45.414;11.082;2023-04-25T05:03:36;0.30;;;0.10;;
77400;SDS011;66855;45.414;11.082;2023-04-25T05:06:24;0.10;;;0.10;;
77400;SDS011;66855;45.414;11.082;2023-04-25T05:09:11;0.40;;;0.10;;
77400;SDS011;66855;45.414;11.082;2023-04-25T05:12:06;1.00;;;0.10;;
77400;SDS011;66855;45.414;11.082;2023-04-25T05:14:56;1.00;;;0.10;;
77400;SDS011;66855;45.414;11.082;2023-04-25T05:17:29;0.30;;;0.10;;
77400;SDS011;66855;45.414;11.082;2023-04-25T05:19:58;0.10;;;0.00;;
77400;SDS011;66855;45.414;11.082;2023-04-25T05:22:38;1.50;;;0.20;;
77400;SDS011;66855;45.414;11.082;2023-04-25T05:25:25;0.80;;;0.40;;
77400;SDS011;66855;45.414;11.082;2023-04-25T05:28:13;2.20;;;0.90;;
77400;SDS011;66855;45.414;11.082;2023-04-25T05:30:50;3.30;;;0.80;;
77400;SDS011;66855;45.414;11.082;2023-04-25T05:33:26;2.80;;;0.40;;
77400;SDS011;66855;45.414;11.082;2023-04-25T05:35:53;2.80;;;0.30;;
77400;SDS011;66855;45.414;11.082;2023-04-25T05:38:21;0.90;;;0.20;;
77400;SDS011;66855;45.414;11.082;2023-04-25T05:41:07;1.90;;;0.40;;
77400;SDS011;66855;45.414;11.082;2023-04-25T05:43:42;1.70;;;0.70;;
77400;SDS011;66855;45.414;11.082;2023-04-25T05:46:37;3.00;;;0.80;;
77400;SDS011;66855;45.414;11.082;2023-04-25T05:49:12;5.80;;;0.90;;
77400;SDS011;66855;45.414;11.082;2023-04-25T05:51:57;2.10;;;0.70;;
77400;SDS011;66855;45.414;11.082;2023-04-25T05:54:38;4.40;;;0.90;;
77400;SDS011;66855;45.414;11.082;2023-04-25T05:57:05;3.30;;;1.20;;
77400;SDS011;66855;45.414;11.082;2023-04-25T05:59:33;2.40;;;0.50;;
77400;SDS011;66855;45.414;11.082;2023-04-25T06:02:00;3.30;;;0.40;;
77400;SDS011;66855;45.414;11.082;2023-04-25T06:04:27;0.70;;;0.10;;
77400;SDS011;66855;45.414;11.082;2023-04-25T06:06:55;0.70;;;0.10;;
77400;SDS011;66855;45.414;11.082;2023-04-25T06:09:21;0.30;;;0.10;;
77400;SDS011;66855;45.414;11.082;2023-04-25T06:11:48;0.10;;;0.10;;
77400;SDS011;66855;45.414;11.082;2023-04-25T06:14:15;1.10;;;0.10;;
77400;SDS011;66855;45.414;11.082;2023-04-25T06:16:45;0.40;;;0.00;;
77400;SDS011;66855;45.414;11.082;2023-04-25T06:19:12;0.10;;;0.10;;
77400;SDS011;66855;45.414;11.082;2023-04-25T06:21:38;1.10;;;0.20;;
77400;SDS011;66855;45.414;11.082;2023-04-25T06:24:05;0.10;;;0.00;;
77400;SDS011;66855;45.414;11.082;2023-04-25T06:26:32;0.20;;;0.00;;
77400;SDS011;66855;45.414;11.082;2023-04-25T06:28:59;0.70;;;0.10;;
77400;SDS011;66855;45.414;11.082;2023-04-25T06:31:26;0.20;;;0.00;;
77400;SDS011;66855;45.414;11.082;2023-04-25T06:33:53;0.50;;;0.00;;
77400;SDS011;66855;45.414;11.082;2023-04-25T06:46:56;0.20;;;0.10;;
77400;SDS011;66855;45.414;11.082;2023-04-25T06:49:23;0.10;;;0.10;;
77400;SDS011;66855;45.414;11.082;2023-04-25T06:51:50;1.40;;;0.20;;
77400;SDS011;66855;45.414;11.082;2023-04-25T06:54:17;0.30;;;0.10;;
77400;SDS011;66855;45.414;11.082;2023-04-25T06:56:52;0.70;;;0.20;;
77400;SDS011;66855;45.414;11.082;2023-04-25T06:59:20;0.20;;;0.10;;
77400;SDS011;66855;45.414;11.082;2023-04-25T07:01:47;0.50;;;0.20;;
77400;SDS011;66855;45.414;11.082;2023-04-25T07:04:17;0.10;;;0.10;;
77400;SDS011;66855;45.414;11.082;2023-04-25T07:06:49;0.10;;;0.10;;
77400;SDS011;66855;45.414;11.082;2023-04-25T07:09:19;0.20;;;0.10;;
77400;SDS011;66855;45.414;11.082;2023-04-25T07:11:46;0.40;;;0.10;;
77400;SDS011;66855;45.414;11.082;2023-04-25T07:14:13;0.30;;;0.20;;
77400;SDS011;66855;45.414;11.082;2023-04-25T07:16:41;0.10;;;0.10;;
77400;SDS011;66855;45.414;11.082;2023-04-25T07:19:09;0.40;;;0.10;;
77400;SDS011;66855;45.414;11.082;2023-04-25T07:21:36;1.00;;;0.40;;
77400;SDS011;66855;45.414;11.082;2023-04-25T07:24:04;2.00;;;1.20;;
77400;SDS011;66855;45.414;11.082;2023-04-25T07:26:34;0.40;;;0.20;;
77400;SDS011;66855;45.414;11.082;2023-04-25T07:31:49;0.20;;;0.20;;
77400;SDS011;66855;45.414;11.082;2023-04-25T07:34:16;0.20;;;0.10;;
77400;SDS011;66855;45.414;11.082;2023-04-25T07:36:43;0.40;;;0.20;;
77400;SDS011;66855;45.414;11.082;2023-04-25T07:39:09;0.50;;;0.10;;
77400;SDS011;66855;45.414;11.082;2023-04-25T07:41:37;0.10;;;0.00;;
77400;SDS011;66855;45.414;11.082;2023-04-25T07:44:04;0.80;;;0.20;;
77400;SDS011;66855;45.414;11.082;2023-04-25T07:46:31;1.50;;;0.30;;
77400;SDS011;66855;45.414;11.082;2023-04-25T07:48:58;0.10;;;0.00;;
77400;SDS011;66855;45.414;11.082;2023-04-25T07:51:25;0.50;;;0.10;;
77400;SDS011;66855;45.414;11.082;2023-04-25T07:53:52;0.10;;;0.10;;
77400;SDS011;66855;45.414;11.082;2023-04-25T07:56:19;0.80;;;0.10;;
77400;SDS011;66855;45.414;11.082;2023-04-25T07:58:47;0.40;;;0.10;;
77400;SDS011;66855;45.414;11.082;2023-04-25T08:01:14;1.50;;;0.20;;
77400;SDS011;66855;45.414;11.082;2023-04-25T08:03:45;0.30;;;0.20;;
77400;SDS011;66855;45.414;11.082;2023-04-25T08:06:19;0.90;;;0.10;;
77400;SDS011;66855;45.414;11.082;2023-04-25T08:08:56;0.20;;;0.10;;
77400;SDS011;66855;45.414;11.082;2023-04-25T08:11:28;0.20;;;0.20;;
77400;SDS011;66855;45.414;11.082;2023-04-25T08:13:56;0.30;;;0.20;;
77400;SDS011;66855;45.414;11.082;2023-04-25T08:16:22;0.90;;;0.10;;
77400;SDS011;66855;45.414;11.082;2023-04-25T08:18:50;0.10;;;0.10;;
77400;SDS011;66855;45.414;11.082;2023-04-25T08:21:17;0.20;;;0.10;;
77400;SDS011;66855;45.414;11.082;2023-04-25T08:23:44;0.20;;;0.10;;
77400;SDS011;66855;45.414;11.082;2023-04-25T08:26:18;2.00;;;0.20;;
77400;SDS011;66855;45.414;11.082;2023-04-25T08:28:46;0.10;;;0.10;;
77400;SDS011;66855;45.414;11.082;2023-04-25T08:31:12;1.20;;;0.10;;
77400;SDS011;66855;45.414;11.082;2023-04-25T08:33:47;0.60;;;0.20;;
77400;SDS011;66855;45.414;11.082;2023-04-25T08:36:30;0.30;;;0.10;;
77400;SDS011;66855;45.414;11.082;2023-04-25T08:39:16;0.30;;;0.20;;
77400;SDS011;66855;45.414;11.082;2023-04-25T08:41:56;0.40;;;0.10;;
77400;SDS011;66855;45.414;11.082;2023-04-25T08:44:23;0.40;;;0.20;;
77400;SDS011;66855;45.414;11.082;2023-04-25T08:46:50;0.20;;;0.10;;
77400;SDS011;66855;45.414;11.082;2023-04-25T08:49:26;0.30;;;0.20;;
77400;SDS011;66855;45.414;11.082;2023-04-25T08:51:53;0.00;;;0.00;;
77400;SDS011;66855;45.414;11.082;2023-04-25T08:54:27;0.20;;;0.20;;
77400;SDS011;66855;45.414;11.082;2023-04-25T08:57:02;0.10;;;0.10;;
77400;SDS011;66855;45.414;11.082;2023-04-25T08:59:31;0.30;;;0.20;;
77400;SDS011;66855;45.414;11.082;2023-04-25T09:02:00;0.30;;;0.10;;
77400;SDS011;66855;45.414;11.082;2023-04-25T09:04:31;0.10;;;0.10;;
77400;SDS011;66855;45.414;11.082;2023-04-25T09:06:58;0.10;;;0.10;;
77400;SDS011;66855;45.414;11.082;2023-04-25T09:09:25;0.30;;;0.10;;
77400;SDS011;66855;45.414;11.082;2023-04-25T09:11:53;0.70;;;0.10;;
77400;SDS011;66855;45.414;11.082;2023-04-25T09:14:23;0.10;;;0.10;;
77400;SDS011;66855;45.414;11.082;2023-04-25T09:17:05;0.50;;;0.20;;
77400;SDS011;66855;45.414;11.082;2023-04-25T09:19:40;0.40;;;0.20;;
77400;SDS011;66855;45.414;11.082;2023-04-25T09:22:17;0.10;;;0.10;;
77400;SDS011;66855;45.414;11.082;2023-04-25T09:24:45;0.20;;;0.10;;
77400;SDS011;66855;45.414;11.082;2023-04-25T09:27:18;0.20;;;0.00;;
77400;SDS011;66855;45.414;11.082;2023-04-25T09:29:47;0.70;;;0.10;;
77400;SDS011;66855;45.414;11.082;2023-04-25T09:32:19;1.20;;;0.10;;
77400;SDS011;66855;45.414;11.082;2023-04-25T09:34:52;0.20;;;0.10;;
77400;SDS011;66855;45.414;11.082;2023-04-25T09:40:13;0.80;;;0.30;;
77400;SDS011;66855;45.414;11.082;2023-04-25T09:42:49;0.30;;;0.20;;
77400;SDS011;66855;45.414;11.082;2023-04-25T09:45:17;1.00;;;0.30;;
77400;SDS011;66855;45.414;11.082;2023-04-25T09:47:44;0.40;;;0.20;;
77400;SDS011;66855;45.414;11.082;2023-04-25T09:50:15;0.50;;;0.30;;
77400;SDS011;66855;45.414;11.082;2023-04-25T09:52:45;0.30;;;0.30;;
77400;SDS011;66855;45.414;11.082;2023-04-25T09:55:16;0.30;;;0.30;;
77400;SDS011;66855;45.414;11.082;2023-04-25T09:57:43;0.20;;;0.20;;
77400;SDS011;66855;45.414;11.082;2023-04-25T10:00:13;0.60;;;0.40;;
77400;SDS011;66855;45.414;11.082;2023-04-25T10:02:41;0.30;;;0.30;;
77400;SDS011;66855;45.414;11.082;2023-04-25T10:05:11;1.10;;;0.10;;
77400;SDS011;66855;45.414;11.082;2023-04-25T10:07:39;0.60;;;0.40;;
77400;SDS011;66855;45.414;11.082;2023-04-25T10:10:11;0.20;;;0.20;;
77400;SDS011;66855;45.414;11.082;2023-04-25T10:15:06;0.10;;;0.10;;
77400;SDS011;66855;45.414;11.082;2023-04-25T10:20:02;0.60;;;0.20;;
77400;SDS011;66855;45.414;11.082;2023-04-25T10:22:52;0.20;;;0.10;;
77400;SDS011;66855;45.414;11.082;2023-04-25T10:25:22;0.30;;;0.10;;
77400;SDS011;66855;45.414;11.082;2023-04-25T10:27:51;0.20;;;0.10;;
77400;SDS011;66855;45.414;11.082;2023-04-25T10:30:18;0.80;;;0.20;;
77400;SDS011;66855;45.414;11.082;2023-04-25T10:32:45;0.60;;;0.20;;
77400;SDS011;66855;45.414;11.082;2023-04-25T10:35:15;0.60;;;0.20;;
77400;SDS011;66855;45.414;11.082;2023-04-25T10:40:36;0.50;;;0.10;;
77400;SDS011;66855;45.414;11.082;2023-04-25T10:46:01;0.30;;;0.20;;
77400;SDS011;66855;45.414;11.082;2023-04-25T10:48:29;1.20;;;0.70;;
77400;SDS011;66855;45.414;11.082;2023-04-25T10:51:09;0.90;;;0.30;;
77400;SDS011;66855;45.414;11.082;2023-04-25T10:53:38;1.00;;;0.60;;
77400;SDS011;66855;45.414;11.082;2023-04-25T10:56:19;1.80;;;1.20;;
77400;SDS011;66855;45.414;11.082;2023-04-25T10:58:46;1.30;;;0.90;;
77400;SDS011;66855;45.414;11.082;2023-04-25T11:01:21;1.60;;;0.70;;
77400;SDS011;66855;45.414;11.082;2023-04-25T11:03:57;0.70;;;0.70;;
77400;SDS011;66855;45.414;11.082;2023-04-25T11:09:14;0.50;;;0.50;;
77400;SDS011;66855;45.414;11.082;2023-04-25T11:11:41;0.40;;;0.40;;
77400;SDS011;66855;45.414;11.082;2023-04-25T11:14:08;11.70;;;8.00;;
77400;SDS011;66855;45.414;11.082;2023-04-25T11:16:35;11.00;;;7.10;;
77400;SDS011;66855;45.414;11.082;2023-04-25T11:19:03;3.70;;;2.80;;
77400;SDS011;66855;45.414;11.082;2023-04-25T11:21:30;5.80;;;4.10;;
77400;SDS011;66855;45.414;11.082;2023-04-25T11:23:58;4.80;;;4.00;;
77400;SDS011;66855;45.414;11.082;2023-04-25T11:26:26;5.90;;;5.00;;
77400;SDS011;66855;45.414;11.082;2023-04-25T11:28:56;1.30;;;1.00;;
77400;SDS011;66855;45.414;11.082;2023-04-25T11:31:25;2.30;;;1.20;;
77400;SDS011;66855;45.414;11.082;2023-04-25T11:33:53;0.60;;;0.50;;
77400;SDS011;66855;45.414;11.082;2023-04-25T11:36:22;0.80;;;0.50;;
77400;SDS011;66855;45.414;11.082;2023-04-25T11:38:50;2.00;;;0.60;;
77400;SDS011;66855;45.414;11.082;2023-04-25T11:41:19;0.90;;;0.40;;
77400;SDS011;66855;45.414;11.082;2023-04-25T11:43:46;1.00;;;0.50;;
77400;SDS011;66855;45.414;11.082;2023-04-25T11:46:15;1.20;;;0.60;;
77400;SDS011;66855;45.414;11.082;2023-04-25T11:48:42;1.60;;;0.50;;
77400;SDS011;66855;45.414;11.082;2023-04-25T11:51:10;0.70;;;0.60;;
77400;SDS011;66855;45.414;11.082;2023-04-25T11:53:38;1.40;;;0.50;;
77400;SDS011;66855;45.414;11.082;2023-04-25T11:56:11;1.70;;;0.90;;
77400;SDS011;66855;45.414;11.082;2023-04-25T11:58:54;0.40;;;0.40;;
77400;SDS011;66855;45.414;11.082;2023-04-25T12:01:26;0.50;;;0.50;;
77400;SDS011;66855;45.414;11.082;2023-04-25T12:04:11;0.50;;;0.50;;
77400;SDS011;66855;45.414;11.082;2023-04-25T12:06:42;0.60;;;0.60;;
77400;SDS011;66855;45.414;11.082;2023-04-25T12:11:43;1.60;;;0.50;;
77400;SDS011;66855;45.414;11.082;2023-04-25T12:14:20;0.90;;;0.50;;
77400;SDS011;66855;45.414;11.082;2023-04-25T12:16:58;0.60;;;0.60;;
77400;SDS011;66855;45.414;11.082;2023-04-25T12:19:30;1.10;;;0.70;;
77400;SDS011;66855;45.414;11.082;2023-04-25T12:22:00;1.50;;;0.60;;
77400;SDS011;66855;45.414;11.082;2023-04-25T12:24:29;0.50;;;0.40;;
77400;SDS011;66855;45.414;11.082;2023-04-25T12:27:00;0.80;;;0.50;;
77400;SDS011;66855;45.414;11.082;2023-04-25T12:29:30;1.40;;;0.80;;
77400;SDS011;66855;45.414;11.082;2023-04-25T12:32:13;4.50;;;1.20;;
77400;SDS011;66855;45.414;11.082;2023-04-25T12:37:09;2.80;;;1.10;;
77400;SDS011;66855;45.414;11.082;2023-04-25T12:39:36;1.00;;;0.80;;
77400;SDS011;66855;45.414;11.082;2023-04-25T12:42:02;1.50;;;1.00;;
77400;SDS011;66855;45.414;11.082;2023-04-25T12:44:33;1.20;;;0.50;;
77400;SDS011;66855;45.414;11.082;2023-04-25T12:47:00;1.50;;;0.60;;
77400;SDS011;66855;45.414;11.082;2023-04-25T12:49:28;0.50;;;0.30;;
77400;SDS011;66855;45.414;11.082;2023-04-25T12:51:57;0.80;;;0.50;;
77400;SDS011;66855;45.414;11.082;2023-04-25T12:54:24;1.10;;;0.60;;
77400;SDS011;66855;45.414;11.082;2023-04-25T12:56:52;1.60;;;0.60;;
77400;SDS011;66855;45.414;11.082;2023-04-25T12:59:19;1.10;;;0.40;;
77400;SDS011;66855;45.414;11.082;2023-04-25T13:01:47;1.00;;;0.40;;
77400;SDS011;66855;45.414;11.082;2023-04-25T13:04:14;0.80;;;0.40;;
77400;SDS011;66855;45.414;11.082;2023-04-25T13:06:42;1.40;;;0.50;;
77400;SDS011;66855;45.414;11.082;2023-04-25T13:09:08;0.40;;;0.20;;
77400;SDS011;66855;45.414;11.082;2023-04-25T13:11:35;0.40;;;0.30;;
77400;SDS011;66855;45.414;11.082;2023-04-25T13:14:02;0.60;;;0.40;;
77400;SDS011;66855;45.414;11.082;2023-04-25T13:16:30;0.90;;;0.50;;
77400;SDS011;66855;45.414;11.082;2023-04-25T13:18:57;1.10;;;0.60;;
77400;SDS011;66855;45.414;11.082;2023-04-25T13:21:25;1.00;;;0.60;;
77400;SDS011;66855;45.414;11.082;2023-04-25T13:23:53;1.00;;;0.60;;
77400;SDS011;66855;45.414;11.082;2023-04-25T13:26:20;0.50;;;0.40;;
77400;SDS011;66855;45.414;11.082;2023-04-25T13:28:47;0.80;;;0.60;;
77400;SDS011;66855;45.414;11.082;2023-04-25T13:33:43;1.10;;;0.60;;
77400;SDS011;66855;45.414;11.082;2023-04-25T13:36:10;0.90;;;0.50;;
77400;SDS011;66855;45.414;11.082;2023-04-25T13:38:38;1.90;;;0.80;;
77400;SDS011;66855;45.414;11.082;2023-04-25T13:41:05;0.70;;;0.60;;
77400;SDS011;66855;45.414;11.082;2023-04-25T13:43:33;1.50;;;0.60;;
77400;SDS011;66855;45.414;11.082;2023-04-25T13:46:02;1.40;;;0.70;;
77400;SDS011;66855;45.414;11.082;2023-04-25T13:48:29;0.80;;;0.50;;
77400;SDS011;66855;45.414;11.082;2023-04-25T13:50:56;4.70;;;1.00;;
77400;SDS011;66855;45.414;11.082;2023-04-25T13:53:23;0.50;;;0.40;;
77400;SDS011;66855;45.414;11.082;2023-04-25T13:55:50;1.50;;;0.70;;
77400;SDS011;66855;45.414;11.082;2023-04-25T13:58:17;1.50;;;0.60;;
77400;SDS011;66855;45.414;11.082;2023-04-25T14:00:44;1.30;;;0.60;;
77400;SDS011;66855;45.414;11.082;2023-04-25T14:03:12;1.10;;;0.80;;
77400;SDS011;66855;45.414;11.082;2023-04-25T14:05:39;2.70;;;0.90;;
77400;SDS011;66855;45.414;11.082;2023-04-25T14:08:07;1.30;;;0.90;;
77400;SDS011;66855;45.414;11.082;2023-04-25T14:10:34;1.60;;;1.00;;
77400;SDS011;66855;45.414;11.082;2023-04-25T14:13:02;1.80;;;0.90;;
77400;SDS011;66855;45.414;11.082;2023-04-25T14:15:33;1.50;;;0.90;;
77400;SDS011;66855;45.414;11.082;2023-04-25T14:18:00;1.20;;;0.80;;
77400;SDS011;66855;45.414;11.082;2023-04-25T14:20:30;1.20;;;0.90;;
77400;SDS011;66855;45.414;11.082;2023-04-25T14:22:57;0.90;;;0.70;;
77400;SDS011;66855;45.414;11.082;2023-04-25T14:25:25;2.40;;;1.00;;
77400;SDS011;66855;45.414;11.082;2023-04-25T14:27:55;2.70;;;0.70;;
77400;SDS011;66855;45.414;11.082;2023-04-25T14:30:21;2.30;;;0.70;;
77400;SDS011;66855;45.414;11.082;2023-04-25T14:32:50;1.50;;;0.80;;
77400;SDS011;66855;45.414;11.082;2023-04-25T14:35:18;1.60;;;0.80;;
77400;SDS011;66855;45.414;11.082;2023-04-25T14:37:50;1.40;;;0.70;;
77400;SDS011;66855;45.414;11.082;2023-04-25T14:40:16;1.50;;;1.10;;
77400;SDS011;66855;45.414;11.082;2023-04-25T14:42:46;1.40;;;0.90;;
77400;SDS011;66855;45.414;11.082;2023-04-25T14:45:13;1.50;;;0.80;;
77400;SDS011;66855;45.414;11.082;2023-04-25T14:47:40;1.10;;;0.90;;
77400;SDS011;66855;45.414;11.082;2023-04-25T14:50:08;1.40;;;1.10;;
77400;SDS011;66855;45.414;11.082;2023-04-25T14:52:35;1.70;;;1.10;;
77400;SDS011;66855;45.414;11.082;2023-04-25T14:55:03;1.70;;;1.20;;
77400;SDS011;66855;45.414;11.082;2023-04-25T14:57:33;1.30;;;1.00;;
77400;SDS011;66855;45.414;11.082;2023-04-25T15:00:01;2.10;;;0.70;;
77400;SDS011;66855;45.414;11.082;2023-04-25T15:02:28;1.50;;;0.70;;
77400;SDS011;66855;45.414;11.082;2023-04-25T15:04:55;1.60;;;0.80;;
77400;SDS011;66855;45.414;11.082;2023-04-25T15:07:22;1.10;;;1.00;;
77400;SDS011;66855;45.414;11.082;2023-04-25T15:09:49;1.70;;;0.90;;
77400;SDS011;66855;45.414;11.082;2023-04-25T15:12:16;1.40;;;0.90;;
77400;SDS011;66855;45.414;11.082;2023-04-25T15:14:43;2.10;;;1.40;;
77400;SDS011;66855;45.414;11.082;2023-04-25T15:17:09;2.30;;;0.90;;
77400;SDS011;66855;45.414;11.082;2023-04-25T15:19:36;1.80;;;0.90;;
77400;SDS011;66855;45.414;11.082;2023-04-25T15:22:03;1.60;;;1.00;;
77400;SDS011;66855;45.414;11.082;2023-04-25T15:24:29;3.20;;;0.90;;
77400;SDS011;66855;45.414;11.082;2023-04-25T15:26:56;1.40;;;1.30;;
77400;SDS011;66855;45.414;11.082;2023-04-25T15:29:24;1.30;;;1.00;;
77400;SDS011;66855;45.414;11.082;2023-04-25T15:31:52;1.70;;;1.00;;
77400;SDS011;66855;45.414;11.082;2023-04-25T15:34:19;1.30;;;1.00;;
77400;SDS011;66855;45.414;11.082;2023-04-25T15:36:46;0.90;;;0.80;;